Time;durP1;ratioP1;P1;durP2;ratioP2;P2;SDS_P1;SDS_P2;PMS_P1;PMS_P2;Temp;Humidity;BMP_temperature;BMP_pressure;BME280_temperature;BME280_humidity;BME280_pressure;Samples;Min_cycle;Max_cycle;Signal;HPM_P1;HPM_P2
2022/08/26 00:01:17;;;;;;;8.08;3.83;;;;;;;29.07;37.87;100757.05;1699911;84;20989;-49
2022/08/26 00:03:44;;;;;;;7.12;3.67;;;;;;;29.07;37.89;100759.72;1660931;84;21487;-50
2022/08/26 00:06:11;;;;;;;11.15;3.80;;;;;;;29.05;38.06;100752.33;1702439;84;20985;-48
2022/08/26 00:08:38;;;;;;;9.73;4.30;;;;;;;29.05;38.35;100752.33;1659804;85;21054;-49
2022/08/26 00:11:06;;;;;;;10.32;3.80;;;;;;;29.05;38.63;100754.52;1678553;85;21604;-48
2022/08/26 00:13:34;;;;;;;10.20;3.90;;;;;;;29.04;38.87;100749.33;1672251;85;20978;-50
2022/08/26 00:16:01;;;;;;;9.63;4.05;;;;;;;29.05;39.12;100749.66;1667642;86;21010;-50
2022/08/26 00:18:27;;;;;;;8.38;4.50;;;;;;;29.03;39.29;100745.80;1719363;83;20971;-50
2022/08/26 00:20:54;;;;;;;6.95;3.58;;;;;;;29.04;39.52;100747.98;1719849;83;20998;-52
2022/08/26 00:23:21;;;;;;;7.22;3.87;;;;;;;29.04;39.69;100743.97;1719835;83;21006;-48
2022/08/26 00:25:47;;;;;;;9.48;4.22;;;;;;;29.02;39.52;100740.59;1719811;83;21432;-49
2022/08/26 00:28:14;;;;;;;9.63;3.90;;;;;;;29.02;39.40;100741.94;1714977;83;20963;-50
2022/08/26 00:30:41;;;;;;;7.97;3.77;;;;;;;29.03;39.28;100744.94;1716801;83;21033;-53
2022/08/26 00:33:08;;;;;;;10.13;4.03;;;;;;;29.04;39.41;100744.78;1719718;83;20994;-51
2022/08/26 00:35:35;;;;;;;7.53;3.50;;;;;;;29.05;39.45;100737.59;1718936;82;21014;-48
2022/08/26 00:38:02;;;;;;;12.68;4.87;;;;;;;29.06;39.45;100744.66;1716452;83;20967;-53
2022/08/26 00:40:35;;;;;;;9.53;4.50;;;;;;;29.08;39.48;100742.67;1719529;83;21047;-49
2022/08/26 00:43:02;;;;;;;9.55;3.98;;;;;;;29.08;39.62;100748.84;1719763;83;21010;-49
2022/08/26 00:45:49;;;;;;;9.55;3.70;;;;;;;29.09;39.44;100747.02;1719747;83;21452;-48
2022/08/26 00:48:18;;;;;;;11.35;4.40;;;;;;;29.09;39.46;100745.67;1718964;83;21432;-48
2022/08/26 00:50:49;;;;;;;6.28;3.70;;;;;;;29.11;39.58;100748.55;1774903;80;20958;-48
2022/08/26 00:53:22;;;;;;;;;;;;;;;29.10;39.83;100744.17;1716439;83;21009;-49
2022/08/26 00:56:00;;;;;;;6.28;4.05;;;;;;;29.11;40.56;100735.65;1711846;83;20118;-49
2022/08/26 00:58:28;;;;;;;9.95;3.80;;;;;;;29.10;41.25;100731.30;1713195;83;21018;-48
2022/08/26 01:00:54;;;;;;;7.10;3.70;;;;;;;29.10;41.58;100733.45;1712624;83;21542;-50
2022/08/26 01:03:25;;;;;;;8.75;4.72;;;;;;;29.11;41.63;100736.98;1713068;83;20979;-49
2022/08/26 01:05:54;;;;;;;10.32;4.28;;;;;;;29.11;41.83;100742.34;1713156;83;20950;-49
2022/08/26 01:08:21;;;;;;;6.87;3.55;;;;;;;29.11;42.23;100743.69;1711735;83;21006;-51
2022/08/26 01:10:48;;;;;;;8.15;4.08;;;;;;;29.13;41.74;100737.68;1658061;86;21596;-50
2022/08/26 01:13:15;;;;;;;10.10;4.08;;;;;;;29.12;41.45;100735.48;1701878;84;20987;-48
2022/08/26 01:15:48;;;;;;;8.05;3.72;;;;;;;29.11;41.21;100736.98;1662702;86;20982;-50
2022/08/26 01:18:15;;;;;;;10.90;4.05;;;;;;;29.11;40.88;100740.52;1653443;86;20967;-50
2022/08/26 01:21:22;;;;;;;7.72;4.00;;;;;;;29.10;40.59;100732.64;1703100;84;21031;-49
2022/08/26 01:23:50;;;;;;;7.45;4.60;;;;;;;29.09;40.91;100734.95;1698998;84;20978;-48
2022/08/26 01:26:24;;;;;;;7.87;3.83;;;;;;;29.06;41.07;100735.28;1679403;85;20970;-50
2022/08/26 01:28:54;;;;;;;9.58;4.00;;;;;;;29.06;41.11;100735.28;1676689;85;21082;-48
2022/08/26 01:31:23;;;;;;;7.75;3.85;;;;;;;29.05;40.62;100734.92;1673523;85;20994;-49
2022/08/26 01:34:22;;;;;;;9.43;4.30;;;;;;;29.02;40.38;100721.84;1679053;85;20977;-53
2022/08/26 01:36:49;;;;;;;9.88;3.83;;;;;;;29.02;40.26;100719.16;1672044;85;21473;-50
2022/08/26 01:39:16;;;;;;;13.53;4.70;;;;;;;28.93;40.13;100719.05;1650331;85;20983;-49
2022/08/26 01:41:42;;;;;;;5.47;3.95;;;;;;;28.94;39.87;100710.04;1677619;85;20963;-52
2022/08/26 01:44:14;;;;;;;7.72;3.80;;;;;;;28.93;39.64;100705.66;1674598;85;21489;-48
2022/08/26 01:46:41;;;;;;;6.22;4.28;;;;;;;28.91;39.66;100707.65;1652151;86;20991;-49
2022/08/26 01:49:09;;;;;;;6.95;4.50;;;;;;;28.88;39.54;100711.98;1677555;83;20998;-48
2022/08/26 01:51:36;;;;;;;12.78;4.42;;;;;;;28.85;39.58;100708.25;1723359;83;20951;-48
2022/08/26 01:54:04;;;;;;;9.78;4.12;;;;;;;28.82;39.68;100706.39;1723243;83;21510;-50
2022/08/26 01:56:31;;;;;;;11.18;4.28;;;;;;;28.82;39.99;100709.91;1723468;83;21053;-49
2022/08/26 01:58:59;;;;;;;9.05;3.83;;;;;;;28.79;40.06;100708.86;1699657;83;21049;-50
2022/08/26 02:01:26;;;;;;;7.10;4.15;;;;;;;28.78;40.00;100707.19;1723543;83;21076;-48
2022/08/26 02:04:10;;;;;;;10.82;4.15;;;;;;;28.78;40.05;100705.86;1694887;84;21013;-50
2022/08/26 02:06:38;;;;;;;5.25;3.47;;;;;;;28.78;39.97;100708.53;1721182;83;21021;-48
2022/08/26 02:09:05;;;;;;;5.25;4.08;;;;;;;28.76;39.95;100709.18;1710853;83;21625;-49
2022/08/26 02:11:32;;;;;;;10.53;4.15;;;;;;;28.73;39.87;100708.13;1685514;85;20938;-49
2022/08/26 02:14:12;;;;;;;8.08;4.17;;;;;;;28.72;40.12;100709.62;1685650;85;21506;-47
2022/08/26 02:16:41;;;;;;;8.43;3.98;;;;;;;28.71;40.29;100710.11;1685684;85;20970;-48
2022/08/26 02:19:13;;;;;;;9.05;4.05;;;;;;;28.70;40.35;100703.09;1620739;88;20993;-49
2022/08/26 02:21:42;;;;;;;5.72;4.40;;;;;;;28.68;40.31;100701.06;1621455;88;21200;-48
2022/08/26 02:24:15;;;;;;;8.73;4.22;;;;;;;28.65;40.29;100713.39;1623339;88;20993;-49
2022/08/26 02:26:43;;;;;;;15.83;4.45;;;;;;;28.65;40.23;100728.13;1646856;86;21005;-51
2022/08/26 02:29:24;;;;;;;8.48;4.12;;;;;;;28.64;40.00;100730.47;1629837;86;21038;-48
2022/08/26 02:31:51;;;;;;;7.92;4.20;;;;;;;28.64;40.07;100736.31;1649754;86;21013;-49
2022/08/26 02:34:21;;;;;;;7.95;4.03;;;;;;;28.64;39.81;100739.84;1652184;86;21040;-51
2022/08/26 02:36:48;;;;;;;6.12;3.85;;;;;;;28.63;39.78;100738.14;1646652;86;21049;-50
2022/08/26 02:39:15;;;;;;;9.10;4.25;;;;;;;28.63;39.78;100749.33;1650827;86;20989;-49
2022/08/26 02:41:43;;;;;;;9.78;4.40;;;;;;;28.63;39.74;100740.81;1651654;86;21038;-49
2022/08/26 02:44:10;;;;;;;8.60;4.72;;;;;;;28.64;39.89;100751.03;1649692;86;20961;-48
2022/08/26 02:46:37;;;;;;;9.45;4.60;;;;;;;28.63;40.04;100755.54;1650807;85;21458;-51
2022/08/26 02:49:04;;;;;;;7.08;3.72;;;;;;;28.62;40.04;100751.19;1650765;86;21032;-53
2022/08/26 02:51:31;;;;;;;12.00;4.80;;;;;;;28.62;40.09;100753.02;1650855;86;21022;-49
2022/08/26 02:53:58;;;;;;;8.05;3.72;;;;;;;28.61;40.31;100752.17;1650744;86;20985;-50
2022/08/26 02:56:24;;;;;;;10.95;3.87;;;;;;;28.59;40.35;100746.13;1651352;86;21551;-51
2022/08/26 02:58:51;;;;;;;6.72;4.03;;;;;;;28.59;40.32;100750.14;1652947;86;21021;-51
2022/08/26 03:01:27;;;;;;;10.30;4.47;;;;;;;28.58;40.27;100747.12;1652981;86;21002;-51
2022/08/26 03:03:53;;;;;;;7.12;3.90;;;;;;;28.59;40.34;100756.83;1649943;86;21001;-49
2022/08/26 03:06:20;;;;;;;10.32;4.45;;;;;;;28.58;40.46;100760.52;1649742;86;21490;-48
2022/08/26 03:08:46;;;;;;;9.90;4.10;;;;;;;28.59;40.60;100759.99;1649982;85;21070;-53
2022/08/26 03:11:14;;;;;;;8.75;4.33;;;;;;;28.58;41.03;100759.17;1673122;85;21511;-48
2022/08/26 03:13:41;;;;;;;11.28;4.35;;;;;;;28.58;41.37;100759.17;1671719;85;21025;-48
2022/08/26 03:16:08;;;;;;;13.43;4.42;;;;;;;28.59;41.76;100766.20;1743602;80;21486;-51
2022/08/26 03:18:34;;;;;;;11.95;4.37;;;;;;;28.61;42.01;100762.87;1793510;80;21013;-48
2022/08/26 03:21:10;;;;;;;8.75;4.08;;;;;;;28.62;41.97;100751.68;1793354;80;21482;-48
2022/08/26 03:23:38;;;;;;;10.45;4.03;;;;;;;28.62;41.83;100754.36;1780729;80;20974;-49
2022/08/26 03:26:05;;;;;;;11.22;3.67;;;;;;;28.61;41.97;100764.22;1793505;80;20957;-51
2022/08/26 03:28:32;;;;;;;11.83;4.55;;;;;;;28.62;41.82;100759.72;1793740;80;20959;-51
2022/08/26 03:30:59;;;;;;;9.20;3.60;;;;;;;28.64;41.65;100764.42;1793605;80;20994;-50
2022/08/26 03:33:25;;;;;;;10.32;3.92;;;;;;;28.66;41.46;100755.26;1783466;80;21025;-48
2022/08/26 03:35:52;;;;;;;7.55;3.77;;;;;;;28.68;41.40;100758.63;1793527;80;21493;-50
2022/08/26 03:38:21;;;;;;;7.20;3.90;;;;;;;28.70;41.25;100752.63;1786757;80;20927;-51
2022/08/26 03:40:47;;;;;;;11.83;4.15;;;;;;;28.72;41.28;100758.67;1793497;80;20946;-52
2022/08/26 03:43:15;;;;;;;11.73;3.50;;;;;;;28.73;41.29;100759.00;1793449;80;20994;-49
2022/08/26 03:45:42;;;;;;;9.70;4.25;;;;;;;28.74;41.33;100755.35;1793489;80;21006;-48
2022/08/26 03:48:10;;;;;;;6.87;3.65;;;;;;;28.76;41.26;100754.70;1793282;80;20931;-53
2022/08/26 03:50:36;;;;;;;9.58;4.00;;;;;;;28.77;41.24;100745.66;1793541;80;20923;-47
2022/08/26 03:53:03;;;;;;;9.18;3.67;;;;;;;28.79;41.36;100748.22;1793421;80;21584;-50
2022/08/26 03:55:31;;;;;;;6.00;3.27;;;;;;;28.80;41.54;100746.72;1793618;80;20986;-49
2022/08/26 03:57:58;;;;;;;11.55;4.20;;;;;;;28.82;41.76;100752.77;1788521;80;21458;-49
2022/08/26 04:00:25;;;;;;;9.90;3.65;;;;;;;28.83;41.92;100752.28;1793510;80;20974;-50
2022/08/26 04:02:51;;;;;;;16.52;4.55;;;;;;;28.84;42.07;100762.83;1793266;80;20954;-48
2022/08/26 04:05:19;;;;;;;12.53;4.25;;;;;;;28.86;42.06;100758.17;1793500;80;20939;-49
2022/08/26 04:07:47;;;;;;;18.80;4.17;;;;;;;28.87;42.01;100759.84;1793481;80;20930;-48
2022/08/26 04:10:16;;;;;;;13.90;5.30;;;;;;;28.89;42.03;100751.16;1784884;80;21022;-50
2022/08/26 04:12:43;;;;;;;13.00;4.10;;;;;;;28.90;42.12;100755.53;1779559;81;20986;-51
2022/08/26 04:15:12;;;;;;;13.95;4.55;;;;;;;28.90;42.34;100756.88;1779659;80;20971;-48
2022/08/26 04:17:39;;;;;;;13.25;4.35;;;;;;;28.91;42.51;100753.19;1779602;81;20967;-48
2022/08/26 04:20:07;;;;;;;16.40;4.67;;;;;;;28.92;42.76;100756.71;1779598;81;21514;-48
2022/08/26 04:22:34;;;;;;;11.95;4.12;;;;;;;28.94;42.90;100760.94;1779559;81;21030;-51
2022/08/26 04:25:01;;;;;;;15.03;4.45;;;;;;;28.95;42.81;100763.95;1779670;80;21452;-49
2022/08/26 04:27:28;;;;;;;11.00;4.00;;;;;;;28.96;42.85;100766.98;1779653;80;20972;-50
2022/08/26 04:29:55;;;;;;;21.37;4.03;;;;;;;28.98;42.92;100759.64;1779914;81;20955;-48
2022/08/26 04:32:21;;;;;;;12.68;4.47;;;;;;;29.00;42.99;100772.05;1778708;81;20932;-48
2022/08/26 04:34:48;;;;;;;20.20;5.20;;;;;;;29.02;43.17;100774.09;1779517;80;20991;-51
2022/08/26 04:37:15;;;;;;;11.08;4.28;;;;;;;29.03;43.28;100777.09;1779678;80;20959;-49
2022/08/26 04:39:41;;;;;;;10.55;4.37;;;;;;;29.05;43.42;100769.26;1779630;80;20915;-48
2022/08/26 04:42:08;;;;;;;13.90;4.55;;;;;;;29.07;43.61;100770.44;1779607;80;21451;-52
2022/08/26 04:44:36;;;;;;;10.43;4.53;;;;;;;29.07;43.82;100771.29;1779635;80;20962;-48
2022/08/26 04:47:03;;;;;;;13.22;4.45;;;;;;;29.09;44.06;100763.09;1779082;81;20994;-49
2022/08/26 04:49:30;;;;;;;12.05;4.62;;;;;;;29.10;44.15;100768.81;1779654;80;21014;-49
2022/08/26 04:51:57;;;;;;;8.30;4.22;;;;;;;29.10;44.21;100758.09;1779600;80;20940;-49
2022/08/26 04:54:25;;;;;;;15.43;5.25;;;;;;;29.10;44.48;100759.44;1779654;81;21006;-48
2022/08/26 04:56:51;;;;;;;13.85;4.75;;;;;;;29.10;44.67;100758.09;1779634;80;21440;-49
2022/08/26 04:59:18;;;;;;;12.60;4.40;;;;;;;29.11;44.79;100761.10;1779671;80;20947;-51
2022/08/26 05:01:47;;;;;;;12.37;4.25;;;;;;;29.11;44.92;100761.95;1777360;81;20982;-48
2022/08/26 05:04:15;;;;;;;14.85;5.30;;;;;;;29.11;45.02;100759.77;1779724;80;20919;-51
2022/08/26 05:06:42;;;;;;;13.13;5.00;;;;;;;29.12;45.17;100761.47;1779641;80;21459;-52
2022/08/26 05:09:08;;;;;;;22.02;5.65;;;;;;;29.13;45.55;100756.44;1779586;80;20974;-49
2022/08/26 05:11:37;;;;;;;14.18;4.60;;;;;;;29.14;45.77;100759.48;1779401;80;20987;-48
2022/08/26 05:14:04;;;;;;;16.62;5.12;;;;;;;29.16;45.93;100765.55;1779836;81;21427;-49
2022/08/26 05:16:32;;;;;;;15.13;4.92;;;;;;;29.19;46.21;100763.89;1779624;80;20943;-52
2022/08/26 05:18:58;;;;;;;15.95;5.65;;;;;;;29.21;46.42;100763.25;1779698;80;20967;-49
2022/08/26 05:21:27;;;;;;;12.78;5.05;;;;;;;29.23;46.44;100762.11;1779564;81;20943;-54
2022/08/26 05:23:54;;;;;;;13.83;5.08;;;;;;;29.25;46.32;100768.64;1779669;80;20970;-50
2022/08/26 05:26:23;;;;;;;17.80;5.80;;;;;;;29.27;46.34;100763.97;1779634;80;20938;-50
2022/08/26 05:28:50;;;;;;;13.30;4.80;;;;;;;29.26;46.26;100763.16;1779725;80;20951;-54
2022/08/26 05:31:21;;;;;;;21.93;6.50;;;;;;;29.27;45.95;100765.31;1774973;81;21006;-49
2022/08/26 05:33:48;;;;;;;16.23;5.45;;;;;;;29.28;46.09;100765.67;1779643;80;21010;-51
2022/08/26 05:36:17;;;;;;;12.20;4.35;;;;;;;29.28;46.37;100763.00;1779854;80;20923;-48
2022/08/26 05:38:44;;;;;;;22.75;5.80;;;;;;;29.27;45.97;100763.97;1779839;80;20950;-49
2022/08/26 05:41:22;;;;;;;20.72;5.37;;;;;;;29.28;45.55;100771.03;1779797;80;20955;-52
2022/08/26 05:43:49;;;;;;;14.50;5.90;;;;;;;29.29;45.33;100774.05;1706374;83;20989;-50
2022/08/26 05:46:16;;;;;;;20.12;5.55;;;;;;;29.32;44.94;100780.45;1707666;83;21542;-48
2022/08/26 05:48:42;;;;;;;20.75;5.72;;;;;;;29.33;44.71;100779.44;1708498;83;20977;-49
2022/08/26 05:51:10;;;;;;;14.33;5.40;;;;;;;29.36;44.68;100787.20;1706925;83;21030;-48
2022/08/26 05:53:37;;;;;;;20.05;5.33;;;;;;;29.38;44.50;100779.84;1707367;83;20977;-49
2022/08/26 05:56:05;;;;;;;18.07;5.35;;;;;;;29.40;44.50;100787.23;1708142;83;21040;-49
2022/08/26 05:58:32;;;;;;;24.65;6.25;;;;;;;29.42;44.73;100789.27;1708464;83;21074;-53
2022/08/26 06:01:05;;;;;;;25.68;6.83;;;;;;;29.43;44.64;100789.10;1708353;83;21444;-50
2022/08/26 06:03:34;;;;;;;20.45;5.70;;;;;;;29.47;44.57;100791.00;1707617;83;21476;-48
2022/08/26 06:06:06;;;;;;;17.17;5.15;;;;;;;29.50;44.64;100790.67;1705956;83;20996;-53
2022/08/26 06:08:33;;;;;;;17.42;5.37;;;;;;;29.52;44.48;100787.34;1706257;83;20977;-50
2022/08/26 06:11:01;;;;;;;22.55;6.80;;;;;;;29.55;44.34;100787.05;1707513;83;21068;-48
2022/08/26 06:13:28;;;;;;;20.00;6.42;;;;;;;29.59;44.13;100793.79;1711730;83;20996;-51
2022/08/26 06:15:55;;;;;;;24.23;6.12;;;;;;;29.62;44.03;100790.78;1687805;83;20984;-49
2022/08/26 06:18:29;;;;;;;18.25;6.45;;;;;;;29.69;43.96;100793.20;1708838;83;21488;-49
2022/08/26 06:20:54;;;;;;;18.65;6.10;;;;;;;29.74;43.62;100798.47;1643549;87;21057;-48
2022/08/26 06:26:06;;;;;;;16.82;5.72;;;;;;;29.85;43.33;100797.39;1643805;85;20994;-50
2022/08/26 06:28:33;;;;;;;28.50;6.80;;;;;;;29.92;43.18;100792.25;1644782;87;21005;-50
2022/08/26 06:31:01;;;;;;;23.32;6.12;;;;;;;29.96;42.85;100794.47;1644879;87;21037;-51
2022/08/26 06:33:27;;;;;;;20.30;6.10;;;;;;;30.00;42.53;100799.86;1628990;87;21041;-52
2022/08/26 06:35:54;;;;;;;23.00;6.20;;;;;;;30.04;42.55;100797.20;1643799;87;20999;-48
2022/08/26 06:38:21;;;;;;;25.08;6.95;;;;;;;30.09;42.41;100797.56;1643745;87;21045;-49
2022/08/26 06:40:49;;;;;;;15.85;5.28;;;;;;;30.15;42.29;100798.80;1635953;87;21068;-49
2022/08/26 06:43:22;;;;;;;21.42;5.78;;;;;;;30.19;42.07;100798.30;1628561;88;21062;-48
2022/08/26 06:45:49;;;;;;;21.65;7.37;;;;;;;30.26;41.88;100807.41;1628837;88;21475;-49
2022/08/26 06:48:18;;;;;;;24.55;8.28;;;;;;;30.29;41.51;100799.09;1628717;88;21023;-51
2022/08/26 06:50:45;;;;;;;33.73;7.22;;;;;;;30.32;41.16;100801.93;1625446;88;21012;-49
2022/08/26 06:53:12;;;;;;;30.40;7.37;;;;;;;30.32;40.91;100804.13;1628814;88;21044;-49
2022/08/26 06:55:41;;;;;;;28.80;6.62;;;;;;;30.33;40.91;100803.14;1628780;88;21080;-49
2022/08/26 06:58:08;;;;;;;29.85;6.60;;;;;;;30.33;40.75;100800.45;1628796;88;21044;-51
2022/08/26 07:00:37;;;;;;;29.60;7.55;;;;;;;30.32;40.56;100801.44;1628786;88;21062;-50
2022/08/26 07:03:04;;;;;;;29.37;7.83;;;;;;;30.29;40.61;100801.77;1628712;88;21070;-50
2022/08/26 07:05:31;;;;;;;30.37;8.50;;;;;;;30.28;40.73;100800.04;1628796;88;21053;-51
2022/08/26 07:07:58;;;;;;;33.70;8.43;;;;;;;30.26;40.87;100804.73;1628787;88;21531;-50
2022/08/26 07:10:25;;;;;;;31.42;7.00;;;;;;;30.23;41.19;100805.03;1641929;86;21089;-49
2022/08/26 07:12:52;;;;;;;26.97;7.33;;;;;;;30.22;41.46;100804.70;1663144;86;21006;-52
2022/08/26 07:15:19;;;;;;;30.97;7.50;;;;;;;30.21;41.72;100805.69;1662947;86;20998;-51
2022/08/26 07:17:46;;;;;;;32.38;7.78;;;;;;;30.22;41.99;100804.70;1663086;86;21007;-48
2022/08/26 07:20:13;;;;;;;37.58;8.13;;;;;;;30.24;42.17;100808.56;1663117;86;21032;-51
2022/08/26 07:22:39;;;;;;;38.33;8.60;;;;;;;30.20;42.22;100808.05;1663022;86;21491;-49
2022/08/26 07:25:07;;;;;;;35.90;8.28;;;;;;;30.19;41.91;100814.40;1776418;80;20986;-49
2022/08/26 07:27:36;;;;;;;30.62;8.30;;;;;;;30.17;41.00;100805.66;1785461;80;21427;-50
2022/08/26 07:30:05;;;;;;;36.20;9.43;;;;;;;30.17;40.61;100808.34;1785436;80;20958;-52
2022/08/26 07:32:32;;;;;;;38.28;7.67;;;;;;;30.15;40.31;100802.30;1785208;80;20978;-52
2022/08/26 07:34:59;;;;;;;37.50;9.15;;;;;;;30.15;40.31;100799.61;1785532;80;20935;-50
2022/08/26 07:37:25;;;;;;;35.08;8.73;;;;;;;30.17;40.28;100802.98;1785500;80;20947;-49
2022/08/26 07:39:52;;;;;;;30.65;8.68;;;;;;;30.19;39.92;100806.34;1785619;80;20970;-53
2022/08/26 07:42:19;;;;;;;30.85;7.60;;;;;;;30.21;39.98;100803.00;1785486;80;20938;-50
2022/08/26 07:44:46;;;;;;;35.65;8.73;;;;;;;30.22;39.74;100804.70;1785514;80;21443;-49
2022/08/26 07:47:12;;;;;;;26.25;7.95;;;;;;;30.27;40.12;100806.92;1785506;80;20935;-50
2022/08/26 07:49:39;;;;;;;29.90;7.97;;;;;;;30.30;40.32;100803.44;1785408;80;21487;-50
2022/08/26 07:52:07;;;;;;;34.60;7.67;;;;;;;30.32;40.14;100806.81;1785390;80;21439;-48
2022/08/26 07:54:36;;;;;;;34.43;7.15;;;;;;;30.33;40.10;100804.48;1785406;80;20959;-49
2022/08/26 07:57:03;;;;;;;33.70;6.95;;;;;;;30.34;39.63;100803.47;1785498;80;21002;-50
2022/08/26 07:59:30;;;;;;;34.08;8.45;;;;;;;30.35;39.60;100807.00;1785459;80;20947;-49
2022/08/26 08:01:58;;;;;;;35.70;8.18;;;;;;;30.33;39.32;100801.80;1785428;80;20939;-48
2022/08/26 08:04:26;;;;;;;35.75;7.22;;;;;;;30.31;39.45;100807.83;1785622;80;21001;-51
2022/08/26 08:06:54;;;;;;;34.03;7.67;;;;;;;30.29;39.65;100805.80;1785408;80;20963;-49
2022/08/26 08:09:20;;;;;;;28.52;6.95;;;;;;;30.28;40.23;100809.92;1785141;80;21407;-51
2022/08/26 08:11:48;;;;;;;29.15;8.35;;;;;;;30.25;40.32;100804.37;1780259;80;21019;-49
2022/08/26 08:14:15;;;;;;;33.02;8.40;;;;;;;30.23;40.12;100805.03;1779682;80;20986;-49
2022/08/26 08:16:42;;;;;;;32.35;7.83;;;;;;;30.21;39.91;100812.39;1779801;81;21447;-48
2022/08/26 08:19:08;;;;;;;34.88;8.13;;;;;;;30.19;40.00;100813.05;1779700;80;20951;-49
2022/08/26 08:21:35;;;;;;;39.03;8.83;;;;;;;30.20;39.64;100808.05;1779627;81;20962;-48
2022/08/26 08:24:02;;;;;;;31.77;7.12;;;;;;;30.19;39.37;100807.69;1779618;81;20955;-49
2022/08/26 08:26:29;;;;;;;29.32;7.28;;;;;;;30.17;39.25;100802.16;1779694;80;20967;-52
2022/08/26 08:28:56;;;;;;;40.38;10.18;;;;;;;30.15;39.09;100806.32;1779635;81;20994;-49
2022/08/26 08:31:27;;;;;;;51.48;8.83;;;;;;;30.16;39.81;100794.59;1759463;80;21474;-50
2022/08/26 08:33:54;;;;;;;33.27;8.07;;;;;;;30.14;41.11;100788.55;1779359;80;21013;-51
2022/08/26 08:36:21;;;;;;;35.35;8.60;;;;;;;30.12;41.24;100782.98;1779790;81;21002;-54
2022/08/26 08:38:48;;;;;;;35.83;7.78;;;;;;;30.08;41.24;100775.77;1779612;80;20998;-50
2022/08/26 08:41:56;;;;;;;33.67;7.62;;;;;;;30.05;41.23;100781.43;1779645;81;20994;-49
2022/08/26 08:44:23;;;;;;;36.53;9.83;;;;;;;30.01;40.99;100773.35;1761878;81;21014;-50
2022/08/26 08:46:53;;;;;;;34.48;8.40;;;;;;;29.98;41.36;100772.34;1779529;80;20939;-53
2022/08/26 08:49:21;;;;;;;45.10;9.18;;;;;;;29.99;41.35;100774.50;1779373;80;20955;-48
2022/08/26 08:52:05;;;;;;;35.38;8.20;;;;;;;30.00;40.99;100770.83;1779617;80;21034;-50
2022/08/26 08:54:32;;;;;;;32.38;8.90;;;;;;;30.01;41.09;100773.35;1779573;81;20986;-50
2022/08/26 08:57:16;;;;;;;37.35;9.10;;;;;;;30.02;40.58;100775.05;1779610;81;20963;-51
2022/08/26 08:59:52;;;;;;;44.33;9.03;;;;;;;30.06;40.28;100779.10;1732548;81;21014;-49
2022/08/26 09:02:36;;;;;;;29.77;7.22;;;;;;;30.11;40.26;100778.11;1670877;84;20991;-50
2022/08/26 09:05:31;;;;;;;38.40;9.78;;;;;;;30.20;40.26;100771.81;1741297;81;20958;-51
2022/08/26 09:08:05;;;;;;;36.95;8.15;;;;;;;30.30;40.21;100780.63;1733169;81;20959;-49
2022/08/26 09:10:38;;;;;;;36.65;7.72;;;;;;;30.39;39.74;100781.02;1711125;82;21077;-50
2022/08/26 09:13:09;;;;;;;38.02;8.85;;;;;;;30.47;39.81;100791.80;1660876;85;20967;-49
2022/08/26 09:16:08;;;;;;;36.28;9.70;;;;;;;30.54;40.03;100790.14;1740376;82;20986;-51
2022/08/26 09:18:56;;;;;;;38.53;8.63;;;;;;;30.63;39.82;100784.31;1668587;85;21534;-49
2022/08/26 09:21:23;;;;;;;38.33;8.73;;;;;;;30.76;39.27;100784.71;1672533;85;20975;-50
2022/08/26 09:23:50;;;;;;;30.10;8.25;;;;;;;30.88;38.90;100786.63;1731505;82;20974;-49
2022/08/26 09:26:29;;;;;;;37.42;8.25;;;;;;;30.98;38.89;100784.64;1675559;85;21467;-49
2022/08/26 09:29:00;;;;;;;39.60;7.85;;;;;;;31.07;38.45;100779.63;1668487;85;21459;-49
2022/08/26 09:31:31;;;;;;;38.65;9.45;;;;;;;31.16;38.04;100786.73;1672650;85;20967;-49
2022/08/26 09:34:13;;;;;;;;;;;;;;;31.22;38.03;100787.41;1653436;86;21077;-51
2022/08/26 09:36:50;;;;;;;34.18;7.83;;;;;;;31.24;37.96;100790.25;1648658;86;20112;-51
2022/08/26 09:39:32;;;;;;;31.57;7.45;;;;;;;31.27;37.96;100798.00;1652011;85;20994;-52
2022/08/26 09:42:22;;;;;;;38.00;8.83;;;;;;;31.30;37.39;100799.52;1651934;86;20986;-50
2022/08/26 09:44:58;;;;;;;30.80;7.80;;;;;;;31.36;37.44;100808.27;1627434;86;20978;-51
2022/08/26 09:47:40;;;;;;;42.88;8.70;;;;;;;31.40;37.04;100805.62;1645506;85;21082;-55
2022/08/26 09:50:31;;;;;;;41.53;9.30;;;;;;;31.45;36.46;100801.09;1655266;86;20990;-57
2022/08/26 09:53:20;;;;;;;42.33;8.50;;;;;;;31.48;36.45;100804.28;1580945;90;21041;-51
2022/08/26 09:55:51;;;;;;;38.35;8.48;;;;;;;31.53;36.81;100812.67;1630216;87;20982;-55
2022/08/26 09:58:39;;;;;;;44.30;9.03;;;;;;;31.56;37.28;100806.98;1630097;87;20970;-53
2022/08/26 10:01:08;;;;;;;40.12;8.93;;;;;;;31.59;37.61;100809.34;1628518;87;20997;-50
2022/08/26 10:03:36;;;;;;;35.85;9.55;;;;;;;31.65;37.78;100811.37;1629715;87;20989;-52
2022/08/26 10:06:07;;;;;;;45.75;9.43;;;;;;;31.69;37.77;100812.72;1621494;87;21014;-55
2022/08/26 10:08:37;;;;;;;30.48;7.65;;;;;;;31.76;37.84;100809.67;1622695;87;21512;-54
2022/08/26 10:11:37;;;;;;;39.33;9.73;;;;;;;31.84;37.93;100811.02;1619795;87;21058;-51
2022/08/26 10:14:23;;;;;;;39.50;8.45;;;;;;;31.91;37.82;100813.88;1605643;89;21026;-54
2022/08/26 10:17:06;;;;;;;38.70;8.93;;;;;;;31.98;36.96;100818.44;1605473;89;21049;-52
2022/08/26 10:19:41;;;;;;;39.67;9.08;;;;;;;32.01;36.80;100816.77;1603719;89;21042;-52
2022/08/26 10:22:48;;;;;;;37.75;8.40;;;;;;;32.06;37.03;100822.49;1599654;89;21071;-50
2022/08/26 10:25:28;;;;;;;40.45;9.38;;;;;;;32.12;36.30;100816.08;1608341;89;21030;-51
2022/08/26 10:28:03;;;;;;;40.95;8.40;;;;;;;32.21;35.64;100813.72;1531354;94;21570;-52
2022/08/26 10:30:41;;;;;;;42.00;8.63;;;;;;;32.26;35.74;100810.84;1565470;90;20993;-49
2022/08/26 10:33:11;;;;;;;44.18;8.78;;;;;;;32.30;35.47;100812.17;1580374;88;21032;-50
2022/08/26 10:35:54;;;;;;;35.23;8.27;;;;;;;32.34;35.57;100808.12;1605533;88;21560;-50
2022/08/26 10:38:28;;;;;;;40.17;8.48;;;;;;;32.39;35.46;100815.70;1579509;88;20997;-50
2022/08/26 10:41:11;;;;;;;38.65;8.03;;;;;;;32.44;35.66;100807.95;1548607;92;21045;-50
2022/08/26 10:43:53;;;;;;;38.20;9.65;;;;;;;32.49;35.44;100813.67;1557461;91;21023;-50
2022/08/26 10:46:22;;;;;;;33.23;8.15;;;;;;;32.54;35.24;100805.94;1527090;94;21007;-52
2022/08/26 10:48:59;;;;;;;40.12;8.30;;;;;;;32.59;35.32;100803.54;1527406;94;21040;-52
2022/08/26 10:51:34;;;;;;;34.53;8.70;;;;;;;32.60;35.53;100812.78;1527375;94;21602;-54
2022/08/26 10:54:07;;;;;;;29.80;8.48;;;;;;;32.62;35.46;100818.03;1524565;94;21053;-52
2022/08/26 10:57:01;;;;;;;42.05;8.43;;;;;;;32.63;35.52;100814.30;1527432;94;21077;-52
2022/08/26 10:59:47;;;;;;;35.83;8.65;;;;;;;32.66;35.73;100816.66;1527419;94;21039;-53
2022/08/26 11:02:40;;;;;;;36.42;7.85;;;;;;;32.70;35.45;100808.56;1512958;95;21119;-51
2022/08/26 11:05:24;;;;;;;32.90;7.87;;;;;;;32.75;35.01;100804.32;1463901;98;21094;-50
2022/08/26 11:07:55;;;;;;;28.85;6.97;;;;;;;32.79;34.86;100803.45;1463945;98;21099;-50
2022/08/26 11:10:43;;;;;;;35.00;8.43;;;;;;;32.83;34.74;100796.20;1461779;98;21042;-50
2022/08/26 11:13:10;;;;;;;41.92;7.90;;;;;;;32.88;34.56;100794.33;1463950;98;21095;-52
2022/08/26 11:15:43;;;;;;;35.73;8.28;;;;;;;32.91;34.26;100800.73;1464152;98;21042;-50
2022/08/26 11:18:14;;;;;;;38.80;7.67;;;;;;;32.93;34.18;100804.09;1463946;98;21069;-49
2022/08/26 11:20:44;;;;;;;39.78;6.80;;;;;;;32.94;34.25;100799.02;1443079;98;21568;-49
2022/08/26 11:23:25;;;;;;;30.23;7.55;;;;;;;32.96;34.41;100794.28;1445643;97;21115;-50
2022/08/26 11:26:10;;;;;;;35.28;7.60;;;;;;;32.97;34.43;100789.24;1462039;97;21128;-49
2022/08/26 11:28:48;;;;;;;35.10;8.43;;;;;;;32.99;34.26;100793.98;1454437;98;21038;-56
2022/08/26 11:31:29;;;;;;;42.25;7.72;;;;;;;32.96;34.53;100795.63;1453325;98;21139;-52
2022/08/26 11:34:05;;;;;;;36.75;7.67;;;;;;;32.94;34.54;100796.81;1492428;95;21049;-55
2022/08/26 11:36:46;;;;;;;29.70;7.67;;;;;;;32.90;34.39;100784.21;1484158;95;21564;-50
2022/08/26 11:39:36;;;;;;;36.93;8.88;;;;;;;32.88;34.25;100790.28;1496419;94;21173;-51